Terminal Aerodrome Forecast
Issued by NWS Albany, NY

Home | Current Version | Previous Version | Text Only | Print | Product List | Glossary On
Versions: 1 2 3 4 5 6 7 8 9 10 11 12 13 14 15 16 17 18 19 20
000
FTUS41 KALY 230500 AAA
TAFPOU
TAF AMD
KPOU 230557Z 2306/2406 VRB03KT P6SM SCT015 OVC025
      TEMPO 2306/2308 SCT025 OVC040
     FM231600 05005KT P6SM FEW025 BKN045
     FM240000 VRB03KT P6SM SCT040=

USA.gov is the U.S. government's official web portal to all federal, state and local government web resources and services.